createdAt,value
2019-01-22T00:01:25.605Z,47.37
2019-01-22T00:03:53.453Z,46.20
2019-01-22T00:06:24.701Z,46.33
2019-01-22T00:08:52.879Z,46.43
2019-01-22T00:11:21.032Z,48.73
2019-01-22T00:13:50.228Z,45.33
2019-01-22T00:16:21.042Z,44.93
2019-01-22T00:18:49.402Z,46.63
2019-01-22T00:21:18.588Z,46.73
2019-01-22T00:23:46.436Z,46.30
2019-01-22T00:26:14.557Z,47.13
2019-01-22T00:28:42.491Z,46.93
2019-01-22T00:31:10.633Z,45.53
2019-01-22T00:33:38.831Z,46.67
2019-01-22T00:36:07.009Z,46.30
2019-01-22T00:38:36.300Z,45.77
2019-01-22T00:41:06.068Z,45.17
2019-01-22T00:43:33.979Z,45.63
2019-01-22T00:46:02.265Z,46.20
2019-01-22T00:48:30.477Z,46.50
2019-01-22T00:51:01.401Z,46.77
2019-01-22T00:53:29.314Z,45.30
2019-01-22T00:55:57.303Z,47.23
2019-01-22T00:58:29.302Z,48.87
2019-01-22T01:00:57.534Z,47.40
2019-01-22T01:03:25.753Z,45.73
2019-01-22T01:06:00.417Z,46.30
2019-01-22T01:08:29.630Z,46.10
2019-01-22T01:10:57.834Z,47.90
2019-01-22T01:13:26.147Z,46.80
2019-01-22T01:15:54.253Z,46.60
2019-01-22T01:18:22.622Z,47.83
2019-01-22T01:20:50.694Z,49.40
2019-01-22T01:23:19.910Z,47.97
2019-01-22T01:25:48.932Z,48.63
2019-01-22T01:28:17.466Z,49.10
2019-01-22T01:30:47.481Z,49.50
2019-01-22T01:33:18.118Z,47.27
2019-01-22T01:35:46.148Z,48.50
2019-01-22T01:38:15.940Z,50.67
2019-01-22T01:40:44.004Z,48.73
2019-01-22T01:43:11.978Z,48.70
2019-01-22T01:45:39.938Z,48.47
2019-01-22T01:48:08.241Z,49.77
2019-01-22T01:50:36.336Z,49.73
2019-01-22T01:53:04.334Z,47.47
2019-01-22T01:55:32.337Z,50.20
2019-01-22T01:58:01.913Z,46.80
2019-01-22T02:00:29.958Z,48.40
2019-01-22T02:02:57.847Z,46.53
2019-01-22T02:05:26.014Z,48.93
2019-01-22T02:07:55.953Z,47.03
2019-01-22T02:10:25.942Z,46.17
2019-01-22T02:13:00.437Z,43.57
2019-01-22T02:16:28.286Z,43.77
2019-01-22T02:19:17.677Z,42.73
2019-01-22T02:22:37.302Z,44.73
2019-01-22T02:26:39.508Z,41.50
2019-01-22T02:30:24.188Z,42.17
2019-01-22T02:33:45.974Z,39.90
2019-01-22T02:37:36.072Z,38.13
2019-01-22T02:40:23.534Z,39.70
2019-01-22T02:44:00.548Z,39.27
2019-01-22T02:47:07.216Z,38.57
2019-01-22T02:54:03.208Z,38.23
2019-01-22T02:56:55.996Z,36.73
2019-01-22T03:00:09.066Z,38.23
2019-01-22T03:03:23.311Z,38.83
2019-01-22T03:06:55.935Z,39.67
2019-01-22T03:10:27.800Z,38.00
2019-01-22T03:13:27.876Z,37.63
2019-01-22T03:16:46.269Z,37.37
2019-01-22T03:19:30.551Z,37.17
2019-01-22T03:22:25.684Z,40.33
2019-01-22T03:25:16.060Z,37.03
2019-01-22T03:28:23.172Z,35.27
2019-01-22T03:32:06.656Z,39.03
2019-01-22T03:35:50.869Z,35.90
2019-01-22T03:38:58.832Z,33.10
2019-01-22T03:42:43.160Z,34.10
2019-01-22T03:45:56.829Z,35.30
2019-01-22T03:49:12.391Z,35.20
2019-01-22T03:52:26.671Z,33.40
2019-01-22T03:55:35.435Z,32.77
2019-01-22T03:58:10.368Z,32.97
2019-01-22T04:01:16.781Z,33.37
2019-01-22T04:03:44.944Z,33.40
2019-01-22T04:06:42.524Z,31.60
2019-01-22T04:09:34.857Z,33.20
2019-01-22T04:12:03.187Z,32.70
2019-01-22T04:14:31.188Z,32.90
2019-01-22T04:16:59.413Z,30.63
2019-01-22T04:19:27.493Z,33.03
2019-01-22T04:21:55.840Z,31.90
2019-01-22T04:25:27.705Z,30.20
2019-01-22T04:28:40.910Z,31.43
2019-01-22T04:31:28.610Z,30.47
2019-01-22T04:35:03.793Z,30.47
2019-01-22T04:38:35.457Z,29.80
2019-01-22T04:41:49.498Z,30.03
2019-01-22T04:45:21.572Z,30.13
2019-01-22T04:48:57.414Z,29.77
2019-01-22T04:52:42.607Z,28.80
2019-01-22T04:55:50.573Z,27.70
2019-01-22T04:59:03.388Z,29.67
2019-01-22T05:02:21.947Z,28.70
2019-01-22T05:05:19.956Z,29.13
2019-01-22T05:08:28.477Z,28.80
2019-01-22T05:11:48.379Z,28.97
2019-01-22T05:15:31.261Z,30.27
2019-01-22T05:18:47.380Z,29.90
2019-01-22T05:22:03.424Z,31.43
2019-01-22T05:25:11.596Z,29.43
2019-01-22T05:28:48.249Z,29.60
2019-01-22T05:32:15.593Z,29.00
2019-01-22T05:35:18.487Z,29.20
2019-01-22T05:38:32.263Z,32.23
2019-01-22T05:41:52.300Z,30.80
2019-01-22T05:45:01.158Z,28.93
2019-01-22T05:48:21.379Z,29.80
2019-01-22T05:51:41.755Z,30.90
2019-01-22T05:54:48.687Z,28.60
2019-01-22T05:57:59.845Z,29.13
2019-01-22T06:01:07.812Z,29.57
2019-01-22T06:04:56.245Z,29.73
2019-01-22T06:08:26.646Z,28.77
2019-01-22T06:11:57.649Z,29.27
2019-01-22T06:15:19.307Z,28.20
2019-01-22T06:19:12.864Z,28.17
2019-01-22T06:22:49.816Z,28.17
2019-01-22T06:26:08.948Z,26.70
2019-01-22T06:33:10.664Z,29.27
2019-01-22T06:36:39.744Z,29.10
2019-01-22T06:40:06.003Z,27.40
2019-01-22T06:43:09.519Z,27.87
2019-01-22T06:46:46.583Z,29.13
2019-01-22T06:49:41.841Z,27.20
2019-01-22T06:53:05.101Z,28.30
2019-01-22T06:56:58.623Z,28.63
2019-01-22T07:00:36.177Z,28.67
2019-01-22T07:03:49.270Z,26.73
2019-01-22T07:07:01.719Z,27.57
2019-01-22T07:14:17.331Z,28.90
2019-01-22T07:17:39.165Z,26.43
2019-01-22T07:20:54.152Z,27.00
2019-01-22T07:23:58.546Z,28.20
2019-01-22T07:27:25.410Z,27.50
2019-01-22T07:31:05.917Z,27.67
2019-01-22T07:34:42.970Z,28.70
2019-01-22T07:38:13.949Z,24.90
2019-01-22T07:45:21.398Z,28.40
2019-01-22T07:48:17.066Z,28.20
2019-01-22T07:51:34.352Z,29.37
2019-01-22T07:54:58.827Z,28.30
2019-01-22T07:58:26.296Z,27.47
2019-01-22T08:01:51.679Z,27.77
2019-01-22T08:05:51.969Z,30.20
2019-01-22T08:09:03.850Z,25.77
2019-01-22T08:12:28.014Z,26.73
2019-01-22T08:15:49.898Z,26.90
2019-01-22T08:19:00.590Z,26.47
2019-01-22T08:22:26.891Z,27.60
2019-01-22T08:29:31.300Z,27.77
2019-01-22T08:33:14.353Z,23.50
2019-01-22T08:36:24.523Z,28.47
2019-01-22T08:39:47.344Z,28.40
2019-01-22T08:43:13.882Z,27.40
2019-01-22T08:46:38.505Z,27.53
2019-01-22T08:50:00.179Z,27.20
2019-01-22T08:53:05.372Z,26.37
2019-01-22T08:56:43.718Z,28.40
2019-01-22T08:59:51.707Z,26.90
2019-01-22T09:02:58.081Z,27.97
2019-01-22T09:06:12.657Z,27.67
2019-01-22T09:09:28.325Z,25.87
2019-01-22T09:12:24.837Z,27.30
2019-01-22T09:15:50.756Z,25.87
2019-01-22T09:19:18.200Z,26.50
2019-01-22T09:22:40.189Z,26.87
2019-01-22T09:25:51.025Z,27.50
2019-01-22T09:29:16.225Z,26.87
2019-01-22T09:32:42.114Z,27.50
2019-01-22T09:36:15.879Z,28.47
2019-01-22T09:38:43.850Z,29.57
2019-01-22T09:41:11.719Z,31.47
2019-01-22T09:43:41.040Z,29.70
2019-01-22T09:46:08.842Z,31.27
2019-01-22T09:48:36.920Z,29.40
2019-01-22T09:51:04.798Z,30.17
2019-01-22T09:53:32.585Z,30.20
2019-01-22T09:56:01.127Z,30.93
2019-01-22T09:58:29.144Z,31.27
2019-01-22T10:00:57.164Z,28.73
2019-01-22T10:03:25.117Z,29.50
2019-01-22T10:05:52.924Z,31.47
2019-01-22T10:08:21.275Z,30.87
2019-01-22T10:10:49.467Z,29.80
2019-01-22T10:13:17.316Z,30.20
2019-01-22T10:15:45.136Z,32.50
2019-01-22T10:18:13.526Z,30.53
2019-01-22T10:20:41.559Z,33.40
2019-01-22T10:23:09.523Z,33.57
2019-01-22T10:25:37.511Z,31.40
2019-01-22T10:28:05.411Z,31.77
2019-01-22T10:30:33.463Z,30.67
2019-01-22T10:33:03.167Z,32.67
2019-01-22T10:35:31.006Z,32.23
2019-01-22T10:37:59.005Z,30.57
2019-01-22T10:40:26.959Z,35.00
2019-01-22T10:42:54.875Z,31.73
2019-01-22T10:45:22.679Z,30.53
2019-01-22T10:47:50.478Z,33.50
2019-01-22T10:50:20.267Z,33.17
2019-01-22T10:52:48.062Z,31.90
2019-01-22T10:55:15.983Z,31.10
2019-01-22T10:57:44.023Z,33.83
2019-01-22T11:00:16.846Z,33.57
2019-01-22T11:02:44.927Z,32.97
2019-01-22T11:05:19.134Z,34.50
2019-01-22T11:07:47.060Z,33.77
2019-01-22T11:10:14.887Z,33.50
2019-01-22T11:12:42.841Z,35.90
2019-01-22T11:15:10.746Z,34.10
2019-01-22T11:17:38.946Z,34.93
2019-01-22T11:20:11.753Z,32.87
2019-01-22T11:22:39.542Z,36.73
2019-01-22T11:25:09.860Z,34.50
2019-01-22T11:27:37.711Z,35.17
2019-01-22T11:30:10.271Z,36.20
2019-01-22T11:32:38.192Z,35.40
2019-01-22T11:35:07.545Z,35.23
2019-01-22T11:37:35.629Z,34.90
2019-01-22T11:40:07.707Z,34.17
2019-01-22T11:42:35.507Z,35.67
2019-01-22T11:45:04.741Z,35.20
2019-01-22T11:47:32.600Z,34.57
2019-01-22T11:50:00.428Z,35.70
2019-01-22T11:52:28.479Z,36.67
2019-01-22T11:54:56.466Z,37.20
2019-01-22T11:57:24.457Z,34.13
2019-01-22T11:59:52.259Z,37.20
2019-01-22T12:02:20.232Z,36.23
2019-01-22T12:04:48.167Z,36.87
2019-01-22T12:07:15.942Z,35.70
2019-01-22T12:09:43.893Z,36.37
2019-01-22T12:12:11.989Z,35.13
2019-01-22T12:14:39.933Z,36.60
2019-01-22T12:17:07.753Z,35.43
2019-01-22T12:19:35.784Z,33.23
2019-01-22T12:22:03.953Z,35.70
2019-01-22T12:24:32.208Z,32.93
2019-01-22T12:27:00.091Z,36.20
2019-01-22T12:29:28.213Z,34.83
2019-01-22T12:31:56.023Z,35.10
2019-01-22T12:34:24.048Z,33.97
2019-01-22T12:36:51.866Z,34.97
2019-01-22T12:39:19.883Z,36.77
2019-01-22T12:41:49.188Z,33.40
2019-01-22T12:44:17.377Z,34.23
2019-01-22T12:46:45.224Z,34.97
2019-01-22T12:49:13.198Z,34.17
2019-01-22T12:51:41.014Z,34.07
2019-01-22T12:54:09.092Z,32.77
2019-01-22T12:56:37.022Z,34.97
2019-01-22T12:59:04.956Z,33.10
2019-01-22T13:01:32.812Z,34.30
2019-01-22T13:04:00.595Z,34.50
2019-01-22T13:06:28.475Z,32.83
2019-01-22T13:08:56.295Z,33.80
2019-01-22T13:11:24.645Z,33.40
2019-01-22T13:13:52.974Z,34.80
2019-01-22T13:16:20.909Z,33.27
2019-01-22T13:18:48.704Z,33.10
2019-01-22T13:21:16.557Z,31.97
2019-01-22T13:23:44.455Z,33.13
2019-01-22T13:26:12.380Z,32.87
2019-01-22T13:28:41.674Z,32.90
2019-01-22T13:31:09.605Z,33.00
2019-01-22T13:33:37.416Z,32.20
2019-01-22T13:36:05.633Z,32.83
2019-01-22T13:38:33.830Z,34.30
2019-01-22T13:41:01.801Z,32.67
2019-01-22T13:43:29.583Z,35.63
2019-01-22T13:45:57.600Z,33.40
2019-01-22T13:48:25.886Z,31.50
2019-01-22T13:50:54.342Z,34.50
2019-01-22T13:53:22.114Z,31.80
2019-01-22T13:55:50.260Z,32.83
2019-01-22T13:58:18.069Z,31.00
2019-01-22T14:00:45.893Z,32.00
2019-01-22T14:03:14.234Z,31.03
2019-01-22T14:05:42.114Z,31.60
2019-01-22T14:08:10.444Z,31.77
2019-01-22T14:10:38.408Z,33.83
2019-01-22T14:13:06.320Z,31.00
2019-01-22T14:15:37.904Z,31.63
2019-01-22T14:18:07.044Z,32.73
2019-01-22T14:20:34.901Z,32.60
2019-01-22T14:23:03.311Z,31.80
2019-01-22T14:25:31.141Z,33.70
2019-01-22T14:27:59.010Z,32.27
2019-01-22T14:30:33.746Z,32.47
2019-01-22T14:33:01.562Z,33.30
2019-01-22T14:35:29.488Z,34.10
2019-01-22T14:37:57.451Z,34.40
2019-01-22T14:40:25.350Z,32.50
2019-01-22T14:42:53.271Z,32.60
2019-01-22T14:45:21.794Z,33.10
2019-01-22T14:47:55.706Z,33.90
2019-01-22T14:50:26.001Z,33.97
2019-01-22T14:52:53.889Z,32.83
2019-01-22T14:55:21.813Z,35.57
2019-01-22T14:57:49.652Z,34.17
2019-01-22T15:00:23.587Z,33.63
2019-01-22T15:02:53.015Z,33.77
2019-01-22T15:05:21.013Z,33.97
2019-01-22T15:07:48.835Z,35.80
2019-01-22T15:10:17.745Z,35.00
2019-01-22T15:12:47.715Z,32.80
2019-01-22T15:15:16.678Z,33.90
2019-01-22T15:17:44.547Z,33.90
2019-01-22T15:20:18.737Z,33.23
2019-01-22T15:22:46.590Z,32.70
2019-01-22T15:25:14.538Z,34.03
2019-01-22T15:27:42.611Z,33.60
2019-01-22T15:30:20.100Z,32.83
2019-01-22T15:32:48.068Z,33.37
2019-01-22T15:35:16.755Z,33.57
2019-01-22T15:37:44.631Z,36.10
2019-01-22T15:40:17.234Z,36.23
2019-01-22T15:42:45.143Z,34.57
2019-01-22T15:45:13.043Z,33.03
2019-01-22T15:47:40.846Z,33.63
2019-01-22T15:50:11.860Z,36.53
2019-01-22T15:52:39.941Z,37.00
2019-01-22T15:55:13.129Z,36.10
2019-01-22T15:57:41.088Z,36.07
2019-01-22T16:00:13.143Z,34.13
2019-01-22T16:02:41.462Z,34.27
2019-01-22T16:05:09.554Z,33.43
2019-01-22T16:07:37.566Z,34.43
2019-01-22T16:10:07.061Z,35.50
2019-01-22T16:12:34.876Z,35.47
2019-01-22T16:15:03.918Z,35.20
2019-01-22T16:17:31.785Z,34.83
2019-01-22T16:19:59.954Z,32.00
2019-01-22T16:22:27.896Z,33.30
2019-01-22T16:24:56.348Z,34.53
2019-01-22T16:27:24.354Z,35.03
2019-01-22T16:29:52.340Z,33.87
2019-01-22T16:32:20.739Z,34.10
2019-01-22T16:34:48.587Z,33.77
2019-01-22T16:37:16.429Z,34.93
2019-01-22T16:39:44.441Z,34.23
2019-01-22T16:42:12.378Z,33.13
2019-01-22T16:44:40.294Z,33.87
2019-01-22T16:47:08.107Z,32.67
2019-01-22T16:49:36.015Z,32.63
2019-01-22T16:52:03.824Z,32.90
2019-01-22T16:54:31.674Z,35.23
2019-01-22T16:57:00.625Z,34.70
2019-01-22T16:59:28.570Z,33.63
2019-01-22T17:01:56.389Z,34.30
2019-01-22T17:04:24.323Z,34.73
2019-01-22T17:06:52.597Z,35.10
2019-01-22T17:09:20.482Z,37.53
2019-01-22T17:11:48.645Z,36.27
2019-01-22T17:14:16.482Z,36.83
2019-01-22T17:16:44.474Z,34.53
2019-01-22T17:19:12.297Z,37.13
2019-01-22T17:21:40.109Z,36.57
2019-01-22T17:24:08.054Z,35.57
2019-01-22T17:26:35.909Z,36.40
2019-01-22T17:29:03.734Z,34.73
2019-01-22T17:31:51.308Z,35.47
2019-01-22T17:34:19.291Z,37.07
2019-01-22T17:36:47.373Z,36.37
2019-01-22T17:39:15.328Z,35.20
2019-01-22T17:41:43.203Z,37.60
2019-01-22T17:44:11.539Z,37.07
2019-01-22T17:46:39.446Z,38.30
2019-01-22T17:49:07.277Z,35.50
2019-01-22T17:51:35.195Z,36.97
2019-01-22T17:54:03.427Z,35.60
2019-01-22T17:56:31.340Z,36.30
2019-01-22T17:59:00.026Z,37.90
2019-01-22T18:01:27.844Z,36.43
2019-01-22T18:03:55.820Z,37.07
2019-01-22T18:06:23.779Z,36.73
2019-01-22T18:08:51.634Z,34.97
2019-01-22T18:11:19.446Z,36.67
2019-01-22T18:13:47.400Z,36.70
2019-01-22T18:16:15.543Z,37.80
2019-01-22T18:18:46.235Z,36.07
2019-01-22T18:21:13.545Z,35.23
2019-01-22T18:23:41.420Z,35.53
2019-01-22T18:26:09.573Z,37.07
2019-01-22T18:28:37.522Z,34.37
2019-01-22T18:31:05.465Z,33.70
2019-01-22T18:33:33.472Z,35.20
2019-01-22T18:36:01.406Z,36.43
2019-01-22T18:38:29.473Z,36.57
2019-01-22T18:40:58.911Z,37.33
2019-01-22T18:43:27.447Z,38.00
2019-01-22T18:45:55.736Z,38.33
2019-01-22T18:48:23.627Z,40.50
2019-01-22T18:50:51.564Z,36.53
2019-01-22T18:53:19.544Z,35.60
2019-01-22T18:55:47.710Z,39.60
2019-01-22T18:58:15.762Z,39.17
2019-01-22T19:00:43.829Z,37.47
2019-01-22T19:03:12.074Z,36.20
2019-01-22T19:05:40.306Z,36.70
2019-01-22T19:08:08.527Z,38.63
2019-01-22T19:10:42.746Z,36.90
2019-01-22T19:13:11.939Z,36.53
2019-01-22T19:15:40.046Z,37.60
2019-01-22T19:18:07.972Z,33.97
2019-01-22T19:20:35.885Z,36.57
2019-01-22T19:23:06.231Z,34.57
2019-01-22T19:25:34.300Z,35.97
2019-01-22T19:28:04.458Z,36.00
2019-01-22T19:30:32.424Z,35.23
2019-01-22T19:33:00.412Z,35.30
2019-01-22T19:35:28.508Z,35.53
2019-01-22T19:37:59.520Z,35.37
2019-01-22T19:40:27.544Z,36.77
2019-01-22T19:42:55.413Z,33.80
2019-01-22T19:45:34.184Z,37.63
2019-01-22T19:48:02.023Z,34.90
2019-01-22T19:50:29.882Z,36.03
2019-01-22T19:52:57.907Z,35.10
2019-01-22T19:55:27.579Z,36.37
2019-01-22T19:57:55.987Z,36.40
2019-01-22T20:00:30.927Z,34.30
2019-01-22T20:02:59.993Z,34.07
2019-01-22T20:05:30.320Z,35.33
2019-01-22T20:07:59.228Z,34.27
2019-01-22T20:10:27.396Z,35.60
2019-01-22T20:12:55.225Z,35.30
2019-01-22T20:15:23.799Z,32.00
2019-01-22T20:17:52.015Z,34.20
2019-01-22T20:20:20.053Z,36.10
2019-01-22T20:22:48.028Z,34.87
2019-01-22T20:25:19.127Z,34.40
2019-01-22T20:27:48.267Z,37.23
2019-01-22T20:30:26.526Z,34.47
2019-01-22T20:32:54.437Z,33.00
2019-01-22T20:35:22.543Z,32.20
2019-01-22T20:37:50.760Z,32.00
2019-01-22T20:40:20.667Z,34.57
2019-01-22T20:42:49.172Z,35.63
2019-01-22T20:45:18.530Z,32.30
2019-01-22T20:47:46.403Z,34.43
2019-01-22T20:50:19.032Z,32.70
2019-01-22T20:52:44.577Z,34.10
2019-01-22T20:55:15.309Z,32.80
2019-01-22T20:57:43.596Z,32.23
2019-01-22T21:00:17.239Z,32.97
2019-01-22T21:02:45.204Z,32.73
2019-01-22T21:05:19.461Z,32.70
2019-01-22T21:07:47.607Z,33.23
2019-01-22T21:10:28.360Z,31.10
2019-01-22T21:13:00.496Z,31.90
2019-01-22T21:15:29.667Z,31.97
2019-01-22T21:17:57.684Z,33.80
2019-01-22T21:20:25.725Z,32.17
2019-01-22T21:22:54.132Z,31.03
2019-01-22T21:25:22.213Z,32.27
2019-01-22T21:27:50.282Z,32.23
2019-01-22T21:30:28.163Z,30.40
2019-01-22T21:32:58.020Z,31.13
2019-01-22T21:35:26.160Z,33.43
2019-01-22T21:37:54.018Z,32.60
2019-01-22T21:40:22.596Z,31.63
2019-01-22T21:42:51.253Z,33.40
2019-01-22T21:45:19.609Z,34.03
2019-01-22T21:47:47.634Z,33.40
2019-01-22T21:50:15.662Z,33.23
2019-01-22T21:52:43.962Z,34.90
2019-01-22T21:55:15.718Z,32.53
2019-01-22T21:57:46.594Z,31.40
2019-01-22T22:00:20.849Z,33.40
2019-01-22T22:02:55.440Z,33.23
2019-01-22T22:05:27.577Z,33.70
2019-01-22T22:07:55.734Z,32.00
2019-01-22T22:10:24.311Z,33.23
2019-01-22T22:12:54.918Z,31.90
2019-01-22T22:15:24.189Z,32.60
2019-01-22T22:17:52.377Z,33.40
2019-01-22T22:20:23.781Z,33.97
2019-01-22T22:22:52.016Z,36.03
2019-01-22T22:25:21.309Z,34.97
2019-01-22T22:27:49.487Z,34.60
2019-01-22T22:30:34.687Z,33.43
2019-01-22T22:33:39.531Z,31.93
2019-01-22T22:36:07.611Z,31.03
2019-01-22T22:38:35.937Z,32.10
2019-01-22T22:41:04.065Z,32.23
2019-01-22T22:43:32.348Z,32.77
2019-01-22T22:46:05.697Z,34.90
2019-01-22T22:48:33.780Z,36.03
2019-01-22T22:51:06.125Z,34.80
2019-01-22T22:53:34.102Z,32.37
2019-01-22T22:56:02.344Z,32.27
2019-01-22T22:58:31.084Z,31.43
2019-01-22T23:01:30.170Z,33.17
2019-01-22T23:03:58.424Z,31.43
2019-01-22T23:06:26.426Z,30.23
2019-01-22T23:08:55.203Z,29.00
2019-01-22T23:11:23.429Z,29.60
2019-01-22T23:13:53.591Z,28.90
2019-01-22T23:16:21.764Z,28.30
2019-01-22T23:18:51.013Z,30.07
2019-01-22T23:21:19.159Z,29.77
2019-01-22T23:23:50.123Z,29.60
2019-01-22T23:26:18.128Z,30.60
2019-01-22T23:28:47.604Z,27.50
2019-01-22T23:31:16.261Z,28.20
2019-01-22T23:33:46.422Z,28.40
2019-01-22T23:36:17.248Z,26.27
2019-01-22T23:38:45.306Z,25.70
2019-01-22T23:41:15.548Z,28.07
2019-01-22T23:43:43.836Z,24.90
2019-01-22T23:46:11.836Z,24.77
2019-01-22T23:48:39.962Z,24.30
2019-01-22T23:51:12.157Z,25.53
2019-01-22T23:53:40.173Z,23.57
2019-01-22T23:56:08.269Z,22.80
2019-01-22T23:58:36.510Z,24.47
